createdAt,value
2017-01-28T00:00:12.349Z,49.40
2017-01-28T00:01:13.220Z,49.80
2017-01-28T00:02:12.606Z,49.40
2017-01-28T00:03:12.297Z,49.20
2017-01-28T00:04:13.104Z,49.10
2017-01-28T00:05:13.990Z,49.00
2017-01-28T00:06:12.100Z,49.10
2017-01-28T00:07:11.387Z,is
2017-01-28T00:08:11.588Z,49.10
2017-01-28T00:09:11.696Z,49.20
2017-01-28T00:10:11.691Z,49.20
2017-01-28T00:11:13.560Z,49.30
2017-01-28T00:12:12.135Z,49.40
2017-01-28T00:13:12.210Z,49.30
2017-01-28T00:14:12.180Z,49.30
2017-01-28T00:15:13.240Z,49.30
2017-01-28T00:16:13.479Z,49.40
2017-01-28T00:17:11.730Z,49.40
2017-01-28T00:18:12.314Z,is
2017-01-28T00:19:13.253Z,49.30
2017-01-28T00:20:13.486Z,49.20
2017-01-28T00:21:12.338Z,49.30
2017-01-28T00:22:14.117Z,49.30
2017-01-28T00:23:12.764Z,49.20
2017-01-28T00:24:11.979Z,49.30
2017-01-28T00:25:12.764Z,49.20
2017-01-28T00:26:12.834Z,49.20
2017-01-28T00:27:12.057Z,49.30
2017-01-28T00:28:12.267Z,49.30
2017-01-28T00:29:13.196Z,49.30
2017-01-28T00:30:11.712Z,49.30
2017-01-28T00:31:11.870Z,49.30
2017-01-28T00:32:12.773Z,49.30
2017-01-28T00:33:10.436Z,is
2017-01-28T00:34:12.362Z,49.40
2017-01-28T00:35:13.013Z,49.40
2017-01-28T00:36:12.110Z,49.30
2017-01-28T00:37:12.281Z,49.40
2017-01-28T00:38:12.966Z,49.30
2017-01-28T00:39:12.582Z,49.40
2017-01-28T00:40:12.483Z,49.40
2017-01-28T00:41:13.093Z,49.50
2017-01-28T00:42:12.275Z,49.40
2017-01-28T00:43:12.867Z,49.30
2017-01-28T00:44:12.807Z,49.40
2017-01-28T00:45:12.889Z,49.80
2017-01-28T00:46:12.099Z,49.70
2017-01-28T00:47:12.157Z,49.60
2017-01-28T00:48:12.600Z,49.60
2017-01-28T00:49:12.323Z,49.40
2017-01-28T00:50:13.178Z,49.50
2017-01-28T00:51:12.141Z,49.30
2017-01-28T00:52:11.040Z,is
2017-01-28T00:53:12.801Z,49.30
2017-01-28T00:54:12.574Z,49.40
2017-01-28T00:55:14.153Z,49.50
2017-01-28T00:56:12.182Z,49.30
2017-01-28T00:57:10.154Z,is
2017-01-28T00:58:11.665Z,49.40
2017-01-28T00:59:14.071Z,49.90
2017-01-28T01:00:14.062Z,49.50
2017-01-28T01:01:12.662Z,49.50
2017-01-28T01:02:09.104Z,is
2017-01-28T01:03:11.623Z,49.50
2017-01-28T01:04:15.433Z,49.40
2017-01-28T01:05:11.663Z,49.50
2017-01-28T01:06:10.629Z,is
2017-01-28T01:07:12.523Z,49.60
2017-01-28T01:08:13.405Z,49.60
2017-01-28T01:09:12.611Z,49.50
2017-01-28T01:10:13.764Z,49.60
2017-01-28T01:11:13.539Z,49.50
2017-01-28T01:12:12.062Z,49.60
2017-01-28T01:13:14.084Z,49.60
2017-01-28T01:14:15.525Z,49.60
2017-01-28T01:15:10.489Z,is
2017-01-28T01:16:12.462Z,49.70
2017-01-28T01:17:12.118Z,49.60
2017-01-28T01:18:13.295Z,49.60
2017-01-28T01:19:13.321Z,49.70
2017-01-28T01:20:12.719Z,49.60
2017-01-28T01:21:13.419Z,49.60
2017-01-28T01:22:12.456Z,49.60
2017-01-28T01:23:12.086Z,49.60
2017-01-28T01:24:10.914Z,is
2017-01-28T01:25:12.803Z,49.60
2017-01-28T01:26:10.846Z,is
2017-01-28T01:27:13.513Z,49.50
2017-01-28T01:28:09.988Z,is
2017-01-28T01:29:12.265Z,49.70
2017-01-28T01:30:11.656Z,49.70
2017-01-28T01:31:12.397Z,49.60
2017-01-28T01:32:12.128Z,49.70
2017-01-28T01:33:12.166Z,49.70
2017-01-28T01:34:12.827Z,49.60
2017-01-28T01:35:12.524Z,49.70
2017-01-28T01:36:12.339Z,49.60
2017-01-28T01:37:12.766Z,49.60
2017-01-28T01:38:14.029Z,49.60
2017-01-28T01:39:13.122Z,49.70
2017-01-28T01:40:13.340Z,49.60
2017-01-28T01:41:13.057Z,49.70
2017-01-28T01:42:14.911Z,49.70
2017-01-28T01:43:12.834Z,49.50
2017-01-28T01:44:11.834Z,49.60
2017-01-28T01:45:11.873Z,49.70
2017-01-28T01:46:12.572Z,49.70
2017-01-28T01:47:12.622Z,49.70
2017-01-28T01:48:11.759Z,49.70
2017-01-28T01:49:12.491Z,49.60
2017-01-28T01:50:12.181Z,49.70
2017-01-28T01:51:12.896Z,49.50
2017-01-28T01:52:13.091Z,49.50
2017-01-28T01:53:12.845Z,49.60
2017-01-28T01:54:13.074Z,49.50
2017-01-28T01:55:13.073Z,49.50
2017-01-28T01:56:13.235Z,49.40
2017-01-28T01:57:14.009Z,49.40
2017-01-28T01:58:12.771Z,49.60
2017-01-28T01:59:13.414Z,49.60
2017-01-28T02:00:12.715Z,49.50
2017-01-28T02:01:12.951Z,49.50
2017-01-28T02:02:11.954Z,49.50
2017-01-28T02:03:12.216Z,49.40
2017-01-28T02:04:10.378Z,is
2017-01-28T02:05:11.486Z,49.50
2017-01-28T02:06:12.101Z,49.50
2017-01-28T02:07:13.077Z,49.50
2017-01-28T02:08:13.546Z,49.40
2017-01-28T02:09:11.627Z,49.40
2017-01-28T02:10:12.290Z,49.50
2017-01-28T02:11:13.057Z,49.50
2017-01-28T02:12:14.604Z,49.30
2017-01-28T02:13:11.690Z,49.40
2017-01-28T02:14:12.153Z,49.40
2017-01-28T02:15:12.303Z,49.30
2017-01-28T02:16:14.737Z,49.40
2017-01-28T02:17:11.958Z,49.30
2017-01-28T02:18:13.596Z,49.40
2017-01-28T02:19:13.433Z,49.70
2017-01-28T02:20:11.565Z,49.30
2017-01-28T02:21:12.250Z,49.40
2017-01-28T02:22:13.401Z,49.40
2017-01-28T02:23:15.104Z,49.40
2017-01-28T02:24:13.544Z,49.30
2017-01-28T02:25:11.698Z,49.40
2017-01-28T02:26:10.622Z,is
2017-01-28T02:27:14.083Z,49.50
2017-01-28T02:28:12.853Z,49.50
2017-01-28T02:29:11.908Z,49.40
2017-01-28T02:30:12.722Z,49.50
2017-01-28T02:31:12.380Z,49.40
2017-01-28T02:32:12.311Z,49.50
2017-01-28T02:33:09.922Z,is
2017-01-28T02:34:12.332Z,49.40
2017-01-28T02:35:12.869Z,49.40
2017-01-28T02:36:12.551Z,49.40
2017-01-28T02:37:12.710Z,49.50
2017-01-28T02:38:12.270Z,49.40
2017-01-28T02:39:11.876Z,is
2017-01-28T02:40:12.377Z,49.40
2017-01-28T02:41:12.449Z,49.40
2017-01-28T02:42:11.923Z,49.50
2017-01-28T02:43:13.699Z,49.50
2017-01-28T02:44:11.563Z,49.50
2017-01-28T02:45:11.998Z,49.50
2017-01-28T02:46:14.036Z,49.60
2017-01-28T02:47:13.959Z,49.50
2017-01-28T02:48:12.632Z,49.60
2017-01-28T02:49:12.187Z,49.60
2017-01-28T02:50:12.407Z,49.60
2017-01-28T02:51:11.578Z,49.60
2017-01-28T02:52:11.730Z,49.50
2017-01-28T02:53:13.355Z,49.50
2017-01-28T02:54:13.629Z,49.60
2017-01-28T02:55:11.698Z,49.60
2017-01-28T02:56:10.309Z,is
2017-01-28T02:57:12.412Z,49.90
2017-01-28T02:58:12.183Z,50.10
2017-01-28T02:59:13.938Z,50.10
2017-01-28T03:00:12.392Z,50.10
2017-01-28T03:01:09.726Z,is
2017-01-28T03:02:11.870Z,is
2017-01-28T03:03:13.647Z,50.20
2017-01-28T03:04:12.350Z,50.20
2017-01-28T03:05:12.240Z,50.30
2017-01-28T03:06:13.210Z,50.40
2017-01-28T03:07:13.717Z,50.30
2017-01-28T03:08:12.691Z,50.30
2017-01-28T03:09:11.986Z,50.70
2017-01-28T03:10:12.518Z,50.50
2017-01-28T03:11:11.656Z,50.60
2017-01-28T03:12:11.670Z,50.50
2017-01-28T03:13:13.392Z,50.60
2017-01-28T03:14:12.579Z,50.60
2017-01-28T03:15:11.620Z,50.70
2017-01-28T03:16:11.611Z,50.60
2017-01-28T03:17:12.612Z,50.70
2017-01-28T03:18:12.165Z,50.60
2017-01-28T03:19:12.808Z,50.70
2017-01-28T03:20:12.000Z,50.60
2017-01-28T03:21:12.564Z,50.80
2017-01-28T03:22:11.776Z,50.70
2017-01-28T03:23:11.965Z,50.80
2017-01-28T03:24:10.751Z,is
2017-01-28T03:25:12.347Z,50.80
2017-01-28T03:26:11.501Z,50.80
2017-01-28T03:27:12.285Z,50.80
2017-01-28T03:28:12.807Z,50.80
2017-01-28T03:29:12.012Z,50.90
2017-01-28T03:30:12.219Z,50.80
2017-01-28T03:31:13.269Z,50.80
2017-01-28T03:32:13.161Z,50.90
2017-01-28T03:33:13.201Z,50.90
2017-01-28T03:34:12.940Z,51.00
2017-01-28T03:35:12.981Z,51.00
2017-01-28T03:36:12.722Z,51.00
2017-01-28T03:37:12.420Z,51.10
2017-01-28T03:38:11.461Z,51.00
2017-01-28T03:39:11.526Z,50.90
2017-01-28T03:40:10.596Z,is
2017-01-28T03:41:12.540Z,50.90
2017-01-28T03:42:11.666Z,51.00
2017-01-28T03:43:10.450Z,is
2017-01-28T03:44:10.561Z,is
2017-01-28T03:45:12.859Z,51.00
2017-01-28T03:46:12.017Z,51.20
2017-01-28T03:47:12.217Z,51.10
2017-01-28T03:48:12.118Z,50.90
2017-01-28T03:49:10.725Z,is
2017-01-28T03:50:12.577Z,51.50
2017-01-28T03:51:12.290Z,51.00
2017-01-28T03:52:12.440Z,51.00
2017-01-28T03:53:11.389Z,50.90
2017-01-28T03:54:13.481Z,51.00
2017-01-28T03:55:11.688Z,50.90
2017-01-28T03:56:12.384Z,50.90
2017-01-28T03:57:13.099Z,51.10
2017-01-28T03:58:13.095Z,51.00
2017-01-28T03:59:13.717Z,51.00
2017-01-28T04:00:13.681Z,51.00
2017-01-28T04:01:12.333Z,51.00
2017-01-28T04:02:11.105Z,is
2017-01-28T04:03:12.520Z,51.00
2017-01-28T04:04:12.584Z,51.10
2017-01-28T04:05:11.591Z,51.10
2017-01-28T04:06:10.775Z,is
2017-01-28T04:07:12.520Z,51.10
2017-01-28T04:08:11.749Z,51.20
2017-01-28T04:09:12.337Z,51.10
2017-01-28T04:10:13.152Z,51.10
2017-01-28T04:11:13.555Z,51.20
2017-01-28T04:12:09.587Z,is
2017-01-28T04:13:12.538Z,51.20
2017-01-28T04:14:12.518Z,51.20
2017-01-28T04:15:12.086Z,51.20
2017-01-28T04:16:09.549Z,is
2017-01-28T04:17:13.098Z,51.20
2017-01-28T04:18:12.100Z,is
2017-01-28T04:19:11.912Z,51.20
2017-01-28T04:20:11.918Z,51.20
2017-01-28T04:21:11.944Z,50.60
2017-01-28T04:22:12.828Z,51.20
2017-01-28T04:23:12.594Z,51.20
2017-01-28T04:24:12.253Z,51.20
2017-01-28T04:25:11.097Z,is
2017-01-28T04:26:12.189Z,51.30
2017-01-28T04:27:12.321Z,51.20
2017-01-28T04:28:13.448Z,51.30
2017-01-28T04:29:11.579Z,51.30
2017-01-28T04:30:13.321Z,51.40
2017-01-28T04:31:13.789Z,51.30
2017-01-28T04:32:12.391Z,51.30
2017-01-28T04:33:12.578Z,51.20
2017-01-28T04:34:11.872Z,51.20
2017-01-28T04:35:12.742Z,51.30
2017-01-28T04:36:13.042Z,51.20
2017-01-28T04:37:12.184Z,51.20
2017-01-28T04:38:14.850Z,51.30
2017-01-28T04:39:13.075Z,51.30
2017-01-28T04:40:12.742Z,51.30
2017-01-28T04:41:10.458Z,is
2017-01-28T04:42:10.796Z,is
2017-01-28T04:43:11.911Z,51.40
2017-01-28T04:44:11.805Z,51.50
2017-01-28T04:45:13.687Z,51.50
2017-01-28T04:46:12.399Z,51.50
2017-01-28T04:47:11.452Z,51.50
2017-01-28T04:48:11.479Z,51.40
2017-01-28T04:49:11.621Z,51.50
2017-01-28T04:50:12.686Z,51.60
2017-01-28T04:51:11.749Z,51.60
2017-01-28T04:52:12.912Z,51.50
2017-01-28T04:53:12.468Z,51.60
2017-01-28T04:54:11.461Z,51.50
2017-01-28T04:55:11.494Z,51.50
2017-01-28T04:56:12.150Z,51.60
2017-01-28T04:57:12.917Z,51.60
2017-01-28T04:58:12.491Z,51.70
2017-01-28T04:59:11.679Z,51.60
2017-01-28T05:00:12.427Z,51.60
2017-01-28T05:01:14.091Z,51.60
2017-01-28T05:02:12.907Z,51.70
2017-01-28T05:03:12.444Z,51.70
2017-01-28T05:04:10.411Z,is
2017-01-28T05:05:12.190Z,51.70
2017-01-28T05:06:13.647Z,51.90
2017-01-28T05:07:11.968Z,51.70
2017-01-28T05:08:12.677Z,51.70
2017-01-28T05:09:11.866Z,51.70
2017-01-28T05:10:11.918Z,51.70
2017-01-28T05:11:12.801Z,51.70
2017-01-28T05:12:12.566Z,51.70
2017-01-28T05:13:11.686Z,51.70
2017-01-28T05:14:12.322Z,51.80
2017-01-28T05:15:11.476Z,51.60
2017-01-28T05:16:11.632Z,51.70
2017-01-28T05:17:12.548Z,51.70
2017-01-28T05:18:13.274Z,51.70
2017-01-28T05:19:14.238Z,51.70
2017-01-28T05:20:12.480Z,51.60
2017-01-28T05:21:12.861Z,51.60
2017-01-28T05:22:11.951Z,51.70
2017-01-28T05:23:13.462Z,51.80
2017-01-28T05:24:12.046Z,51.80
2017-01-28T05:25:15.752Z,51.70
2017-01-28T05:26:16.141Z,51.70
2017-01-28T05:27:12.552Z,51.60
2017-01-28T05:28:09.858Z,is
2017-01-28T05:29:12.631Z,51.60
2017-01-28T05:30:12.566Z,51.60
2017-01-28T05:31:12.154Z,51.70
2017-01-28T05:32:12.796Z,51.50
2017-01-28T05:33:12.570Z,51.50
2017-01-28T05:34:12.214Z,51.40
2017-01-28T05:35:13.001Z,51.50
2017-01-28T05:36:12.238Z,51.30
2017-01-28T05:37:12.411Z,51.40
2017-01-28T05:38:11.226Z,is
2017-01-28T05:39:13.458Z,51.70
2017-01-28T05:40:12.024Z,51.70
2017-01-28T05:41:12.121Z,51.40
2017-01-28T05:42:13.174Z,51.50
2017-01-28T05:43:12.289Z,51.60
2017-01-28T05:44:10.811Z,is
2017-01-28T05:45:13.113Z,51.60
2017-01-28T05:46:13.892Z,51.70
2017-01-28T05:47:12.349Z,51.70
2017-01-28T05:48:12.441Z,51.80
2017-01-28T05:49:11.529Z,51.80
2017-01-28T05:50:11.649Z,51.90
2017-01-28T05:51:11.719Z,51.90
2017-01-28T05:52:12.373Z,51.80
2017-01-28T05:53:14.029Z,52.10
2017-01-28T05:54:12.112Z,52.10
2017-01-28T05:55:12.891Z,52.00
2017-01-28T05:56:11.961Z,52.10
2017-01-28T05:57:12.978Z,52.20
2017-01-28T05:58:12.179Z,52.00
2017-01-28T05:59:13.169Z,52.10
2017-01-28T06:00:14.171Z,52.20
2017-01-28T06:01:12.177Z,52.20
2017-01-28T06:02:12.217Z,52.20
2017-01-28T06:03:12.739Z,52.30
2017-01-28T06:04:11.971Z,52.20
2017-01-28T06:05:13.500Z,52.20
2017-01-28T06:06:11.553Z,52.10
2017-01-28T06:07:12.585Z,52.20
2017-01-28T06:08:13.080Z,52.30
2017-01-28T06:09:10.801Z,is
2017-01-28T06:10:12.201Z,52.20
2017-01-28T06:11:12.401Z,52.20
2017-01-28T06:12:12.916Z,52.30
2017-01-28T06:13:11.962Z,52.30
2017-01-28T06:14:12.654Z,52.20
2017-01-28T06:15:12.381Z,52.30
2017-01-28T06:16:09.707Z,is
2017-01-28T06:17:12.502Z,52.40
2017-01-28T06:18:11.546Z,52.60
2017-01-28T06:19:11.492Z,52.50
2017-01-28T06:20:12.339Z,52.40
2017-01-28T06:21:14.172Z,52.50
2017-01-28T06:22:12.255Z,52.20
2017-01-28T06:23:11.116Z,is
2017-01-28T06:24:12.168Z,52.50
2017-01-28T06:25:12.968Z,52.40
2017-01-28T06:26:12.606Z,52.30
2017-01-28T06:27:11.705Z,52.20
2017-01-28T06:28:12.440Z,52.20
2017-01-28T06:29:11.376Z,52.20
2017-01-28T06:30:11.979Z,52.30
2017-01-28T06:31:12.680Z,52.20
2017-01-28T06:32:13.102Z,52.10
2017-01-28T06:33:12.769Z,52.10
2017-01-28T06:34:13.487Z,52.20
2017-01-28T06:35:11.446Z,52.10
2017-01-28T06:36:14.338Z,52.20
2017-01-28T06:37:13.551Z,52.20
2017-01-28T06:38:11.752Z,52.20
2017-01-28T06:39:11.990Z,52.10
2017-01-28T06:40:12.839Z,52.20
2017-01-28T06:41:12.471Z,52.20
2017-01-28T06:42:11.440Z,52.20
2017-01-28T06:43:12.871Z,52.20
2017-01-28T06:44:12.020Z,52.20
2017-01-28T06:45:12.092Z,52.20
2017-01-28T06:46:12.166Z,52.10
2017-01-28T06:47:12.172Z,52.10
2017-01-28T06:48:12.348Z,52.10
2017-01-28T06:49:12.923Z,52.20
2017-01-28T06:50:12.561Z,52.20
2017-01-28T06:51:11.509Z,52.10
2017-01-28T06:52:11.608Z,52.00
2017-01-28T06:53:12.026Z,52.00
2017-01-28T06:54:12.224Z,52.10
2017-01-28T06:55:13.070Z,52.20
2017-01-28T06:56:13.985Z,52.30
2017-01-28T06:57:10.956Z,is
2017-01-28T06:58:12.587Z,52.50
2017-01-28T06:59:12.278Z,52.50
2017-01-28T07:00:13.907Z,52.60
2017-01-28T07:01:12.778Z,52.60
2017-01-28T07:02:12.342Z,52.70
2017-01-28T07:03:11.930Z,52.60
2017-01-28T07:04:11.918Z,52.60
2017-01-28T07:05:13.579Z,52.70
2017-01-28T07:06:12.379Z,52.60
2017-01-28T07:07:13.211Z,52.70
2017-01-28T07:08:13.735Z,52.60
2017-01-28T07:09:11.818Z,52.60
2017-01-28T07:10:12.649Z,52.60
2017-01-28T07:11:11.640Z,52.70
2017-01-28T07:12:11.635Z,52.60
2017-01-28T07:13:11.762Z,52.70
2017-01-28T07:14:12.277Z,52.60
2017-01-28T07:15:12.955Z,52.80
2017-01-28T07:16:12.639Z,52.70
2017-01-28T07:17:12.645Z,52.70
2017-01-28T07:18:11.748Z,52.60
2017-01-28T07:19:11.780Z,52.70
2017-01-28T07:20:12.760Z,52.70
2017-01-28T07:21:11.957Z,52.70
2017-01-28T07:22:12.491Z,52.50
2017-01-28T07:23:11.461Z,52.50
2017-01-28T07:24:12.110Z,52.60
2017-01-28T07:25:12.140Z,52.70
2017-01-28T07:26:12.911Z,52.70
2017-01-28T07:27:12.501Z,52.80
2017-01-28T07:28:11.702Z,52.80
2017-01-28T07:29:10.563Z,is
2017-01-28T07:30:11.838Z,52.70
2017-01-28T07:31:10.638Z,is
2017-01-28T07:32:13.408Z,52.80
2017-01-28T07:33:09.934Z,is
2017-01-28T07:34:08.797Z,is
2017-01-28T07:35:10.621Z,is
2017-01-28T07:36:11.765Z,52.80
2017-01-28T07:37:13.132Z,52.80
2017-01-28T07:38:12.233Z,52.90
2017-01-28T07:39:13.771Z,52.90
2017-01-28T07:40:12.828Z,53.00
2017-01-28T07:41:12.372Z,53.00
2017-01-28T07:42:12.416Z,52.80
2017-01-28T07:43:12.150Z,52.90
2017-01-28T07:44:12.872Z,53.00
2017-01-28T07:45:11.851Z,52.90
2017-01-28T07:46:12.503Z,53.10
2017-01-28T07:47:12.227Z,52.90
2017-01-28T07:48:12.864Z,53.10
2017-01-28T07:49:12.568Z,52.90
2017-01-28T07:50:12.407Z,52.90
2017-01-28T07:51:12.071Z,53.00
2017-01-28T07:52:12.636Z,53.10
2017-01-28T07:53:12.460Z,52.90
2017-01-28T07:54:13.120Z,52.70
2017-01-28T07:55:12.182Z,53.00
2017-01-28T07:56:13.115Z,53.10
2017-01-28T07:57:10.808Z,is
2017-01-28T07:58:12.023Z,53.10
2017-01-28T07:59:12.775Z,53.00
2017-01-28T08:00:12.601Z,53.00
2017-01-28T08:01:12.546Z,53.00
2017-01-28T08:02:11.648Z,53.00
2017-01-28T08:03:10.619Z,is
2017-01-28T08:04:12.419Z,52.90
2017-01-28T08:05:13.124Z,52.90
2017-01-28T08:06:10.924Z,is
2017-01-28T08:07:12.360Z,53.00
2017-01-28T08:08:10.300Z,is
2017-01-28T08:09:10.546Z,is
2017-01-28T08:10:13.227Z,53.20
2017-01-28T08:11:11.044Z,is
2017-01-28T08:12:13.288Z,53.10
2017-01-28T08:13:13.108Z,53.10
2017-01-28T08:14:12.737Z,53.10
2017-01-28T08:15:12.487Z,53.00
2017-01-28T08:16:11.648Z,52.90
2017-01-28T08:17:12.399Z,52.90
2017-01-28T08:18:13.226Z,52.90
2017-01-28T08:19:12.802Z,52.90
2017-01-28T08:20:12.388Z,52.90
2017-01-28T08:21:11.469Z,52.80
2017-01-28T08:22:12.036Z,52.90
2017-01-28T08:23:13.918Z,52.80
2017-01-28T08:24:12.603Z,52.70
2017-01-28T08:25:09.867Z,is
2017-01-28T08:26:12.624Z,52.70
2017-01-28T08:27:12.364Z,52.80
2017-01-28T08:28:13.879Z,52.70
2017-01-28T08:29:11.986Z,52.90
2017-01-28T08:30:12.608Z,52.80
2017-01-28T08:31:12.415Z,52.80
2017-01-28T08:32:11.619Z,52.70
2017-01-28T08:33:12.656Z,52.70
2017-01-28T08:34:12.648Z,52.80
2017-01-28T08:35:12.222Z,52.90
2017-01-28T08:36:12.302Z,52.70
2017-01-28T08:37:12.921Z,52.90
2017-01-28T08:38:12.185Z,52.80
2017-01-28T08:39:12.225Z,52.80
2017-01-28T08:40:12.365Z,52.80
2017-01-28T08:41:13.315Z,52.80
2017-01-28T08:42:12.941Z,52.70
2017-01-28T08:43:14.761Z,52.70
2017-01-28T08:44:12.286Z,52.80
2017-01-28T08:45:12.452Z,52.20
2017-01-28T08:46:12.083Z,52.80
2017-01-28T08:47:11.024Z,is
2017-01-28T08:48:12.940Z,52.70
2017-01-28T08:49:13.601Z,52.70
2017-01-28T08:50:12.339Z,52.80
2017-01-28T08:51:12.447Z,52.80
2017-01-28T08:52:11.440Z,52.70
2017-01-28T08:53:12.213Z,52.90
2017-01-28T08:54:12.828Z,52.90
2017-01-28T08:55:12.372Z,52.90
2017-01-28T08:56:13.129Z,52.80
2017-01-28T08:57:12.770Z,52.70
2017-01-28T08:58:13.502Z,52.70
2017-01-28T08:59:12.196Z,52.80
2017-01-28T09:00:12.409Z,52.70
2017-01-28T09:01:11.400Z,is
2017-01-28T09:02:11.610Z,53.30
2017-01-28T09:03:12.312Z,53.10
2017-01-28T09:04:12.031Z,53.00
2017-01-28T09:05:12.168Z,53.20
2017-01-28T09:06:10.860Z,is
2017-01-28T09:07:12.940Z,53.10
2017-01-28T09:08:12.015Z,53.10
2017-01-28T09:09:12.622Z,53.30
2017-01-28T09:10:13.317Z,53.20
2017-01-28T09:11:12.417Z,53.40
2017-01-28T09:12:11.417Z,53.30
2017-01-28T09:13:12.177Z,53.70
2017-01-28T09:14:12.910Z,53.40
2017-01-28T09:15:12.554Z,53.20
2017-01-28T09:16:12.368Z,53.50
2017-01-28T09:17:12.583Z,53.20
2017-01-28T09:18:12.496Z,53.30
2017-01-28T09:19:11.630Z,53.20
2017-01-28T09:20:11.541Z,53.20
2017-01-28T09:21:12.546Z,53.40
2017-01-28T09:22:11.709Z,53.40
2017-01-28T09:23:12.776Z,53.40
2017-01-28T09:24:10.313Z,is
2017-01-28T09:25:12.620Z,53.70
2017-01-28T09:26:11.545Z,is
2017-01-28T09:27:11.799Z,52.90
2017-01-28T09:28:13.942Z,52.90
2017-01-28T09:29:12.722Z,53.10
2017-01-28T09:30:10.851Z,is
2017-01-28T09:31:12.606Z,53.40
2017-01-28T09:32:11.857Z,53.00
2017-01-28T09:33:13.520Z,53.20
2017-01-28T09:34:13.181Z,53.50
2017-01-28T09:35:13.021Z,53.50
2017-01-28T09:36:12.775Z,53.70
2017-01-28T09:37:12.706Z,53.70
2017-01-28T09:38:11.801Z,53.70
2017-01-28T09:39:10.526Z,is
2017-01-28T09:40:13.555Z,53.80
2017-01-28T09:41:12.053Z,53.70
2017-01-28T09:42:10.961Z,is
2017-01-28T09:43:12.148Z,53.70
2017-01-28T09:44:12.392Z,53.80
2017-01-28T09:45:14.132Z,53.90
2017-01-28T09:46:12.812Z,53.70
2017-01-28T09:47:10.574Z,is
2017-01-28T09:48:11.862Z,53.80
2017-01-28T09:49:12.775Z,53.90
2017-01-28T09:50:11.892Z,53.80
2017-01-28T09:51:10.887Z,is
2017-01-28T09:52:12.711Z,54.00
2017-01-28T09:53:12.290Z,53.80
2017-01-28T09:54:11.337Z,is
2017-01-28T09:55:12.087Z,53.70
2017-01-28T09:56:10.276Z,is
2017-01-28T09:57:11.651Z,53.80
2017-01-28T09:58:13.444Z,53.90
2017-01-28T09:59:11.429Z,53.80
2017-01-28T10:00:11.479Z,53.80
2017-01-28T10:01:13.187Z,53.70
2017-01-28T10:02:12.793Z,53.80
2017-01-28T10:03:12.498Z,53.90
2017-01-28T10:04:12.110Z,53.90
2017-01-28T10:05:10.788Z,is
2017-01-28T10:06:09.531Z,is
2017-01-28T10:07:12.471Z,53.90
2017-01-28T10:08:11.479Z,53.80
2017-01-28T10:09:11.944Z,53.80
2017-01-28T10:10:12.599Z,53.90
2017-01-28T10:11:11.912Z,53.90
2017-01-28T10:12:12.095Z,53.80
2017-01-28T10:13:12.219Z,53.80
2017-01-28T10:14:13.860Z,50.60
2017-01-28T10:15:12.647Z,47.20
2017-01-28T10:16:12.280Z,49.20
2017-01-28T10:17:12.911Z,52.70
2017-01-28T10:18:11.990Z,51.20
2017-01-28T10:19:13.816Z,50.90
2017-01-28T10:20:12.678Z,50.60
2017-01-28T10:21:12.570Z,52.50
2017-01-28T10:22:09.840Z,is
2017-01-28T10:23:10.696Z,is
2017-01-28T10:24:12.002Z,52.20
2017-01-28T10:25:12.190Z,52.20
2017-01-28T10:26:12.820Z,52.10
2017-01-28T10:27:12.630Z,51.90
2017-01-28T10:28:12.418Z,52.10
2017-01-28T10:29:12.080Z,51.70
2017-01-28T10:30:12.076Z,51.60
2017-01-28T10:31:12.828Z,51.60
2017-01-28T10:32:11.914Z,51.70
2017-01-28T10:33:13.480Z,51.70
2017-01-28T10:34:12.166Z,51.60
2017-01-28T10:35:14.030Z,51.50
2017-01-28T10:36:12.648Z,51.50
2017-01-28T10:37:12.021Z,51.70
2017-01-28T10:38:12.819Z,51.70
2017-01-28T10:39:12.503Z,51.60
2017-01-28T10:40:12.126Z,51.90
2017-01-28T10:41:12.237Z,51.80
2017-01-28T10:42:11.830Z,51.60
2017-01-28T10:43:12.804Z,51.70
2017-01-28T10:44:11.806Z,51.70
2017-01-28T10:45:12.535Z,51.70
2017-01-28T10:46:11.723Z,51.90
2017-01-28T10:47:12.229Z,51.70
2017-01-28T10:48:13.418Z,51.90
2017-01-28T10:49:12.540Z,51.60
2017-01-28T10:50:11.655Z,51.70
2017-01-28T10:51:12.287Z,51.70
2017-01-28T10:52:10.967Z,is
2017-01-28T10:53:12.828Z,52.00
2017-01-28T10:54:11.747Z,51.80
2017-01-28T10:55:11.756Z,51.70
2017-01-28T10:56:13.124Z,52.00
2017-01-28T10:57:11.801Z,52.10
2017-01-28T10:58:12.306Z,52.20
2017-01-28T10:59:12.839Z,52.00
2017-01-28T11:00:11.901Z,52.10
2017-01-28T11:01:12.004Z,52.10
2017-01-28T11:02:12.639Z,52.00
2017-01-28T11:03:12.255Z,52.10
2017-01-28T11:04:12.918Z,52.10
2017-01-28T11:05:12.000Z,52.10
2017-01-28T11:06:13.171Z,52.10
2017-01-28T11:07:12.387Z,52.00
2017-01-28T11:08:12.528Z,is
2017-01-28T11:09:13.046Z,52.00
2017-01-28T11:10:13.585Z,52.10
2017-01-28T11:11:11.967Z,52.20
2017-01-28T11:12:12.390Z,52.10
2017-01-28T11:13:12.406Z,52.10
2017-01-28T11:14:11.478Z,52.10
2017-01-28T11:15:11.447Z,52.20
2017-01-28T11:16:11.519Z,52.20
2017-01-28T11:17:12.167Z,52.30
2017-01-28T11:18:12.897Z,52.30
2017-01-28T11:19:10.694Z,is
2017-01-28T11:20:12.536Z,52.20
2017-01-28T11:21:11.714Z,52.20
2017-01-28T11:22:10.589Z,is
2017-01-28T11:23:12.436Z,52.10
2017-01-28T11:24:11.414Z,52.00
2017-01-28T11:25:11.418Z,49.70
2017-01-28T11:26:12.085Z,48.00
2017-01-28T11:27:12.650Z,47.20
2017-01-28T11:28:12.342Z,48.70
2017-01-28T11:29:12.464Z,50.70
2017-01-28T11:30:13.235Z,51.80
2017-01-28T11:31:12.279Z,51.90
2017-01-28T11:32:12.905Z,52.00
2017-01-28T11:33:12.547Z,51.90
2017-01-28T11:34:11.783Z,51.80
2017-01-28T11:35:12.028Z,51.90
2017-01-28T11:36:12.574Z,51.90
2017-01-28T11:37:09.791Z,is
2017-01-28T11:38:13.895Z,51.70
2017-01-28T11:39:11.954Z,51.70
2017-01-28T11:40:12.621Z,51.50
2017-01-28T11:41:12.292Z,51.60
2017-01-28T11:42:13.900Z,51.40
2017-01-28T11:43:12.444Z,51.50
2017-01-28T11:44:12.285Z,51.50
2017-01-28T11:45:13.096Z,51.40
2017-01-28T11:46:12.218Z,51.40
2017-01-28T11:47:12.094Z,51.40
2017-01-28T11:48:12.170Z,51.40
2017-01-28T11:49:13.754Z,51.40
2017-01-28T11:50:11.886Z,51.20
2017-01-28T11:51:12.495Z,51.10
2017-01-28T11:52:12.107Z,51.10
2017-01-28T11:53:14.415Z,51.60
2017-01-28T11:54:11.543Z,51.40
2017-01-28T11:55:10.686Z,is
2017-01-28T11:56:12.794Z,51.50
2017-01-28T11:57:11.851Z,51.50
2017-01-28T11:58:12.015Z,51.70
2017-01-28T11:59:12.913Z,51.60
2017-01-28T12:00:11.887Z,51.30
2017-01-28T12:01:10.593Z,is
2017-01-28T12:02:12.070Z,51.40
2017-01-28T12:03:12.755Z,51.50
2017-01-28T12:04:12.310Z,51.50
2017-01-28T12:05:13.198Z,51.40
2017-01-28T12:06:10.355Z,is
2017-01-28T12:07:13.388Z,51.40
2017-01-28T12:08:12.516Z,51.50
2017-01-28T12:09:11.560Z,51.20
2017-01-28T12:10:11.444Z,51.20
2017-01-28T12:11:13.108Z,51.40
2017-01-28T12:12:12.025Z,51.20
2017-01-28T12:13:12.297Z,51.40
2017-01-28T12:14:13.075Z,51.50
2017-01-28T12:15:12.714Z,51.50
2017-01-28T12:16:12.152Z,51.80
2017-01-28T12:17:10.366Z,is
2017-01-28T12:18:12.329Z,51.60
2017-01-28T12:19:13.070Z,51.90
2017-01-28T12:20:11.920Z,51.90
2017-01-28T12:21:10.710Z,is
2017-01-28T12:22:11.888Z,51.80
2017-01-28T12:23:13.353Z,51.80
2017-01-28T12:24:11.892Z,51.70
2017-01-28T12:25:12.672Z,51.90
2017-01-28T12:26:12.394Z,51.80
2017-01-28T12:27:13.675Z,51.70
2017-01-28T12:28:12.026Z,51.70
2017-01-28T12:29:10.974Z,is
2017-01-28T12:30:12.193Z,51.70
2017-01-28T12:31:12.920Z,51.80
2017-01-28T12:32:11.904Z,51.70
2017-01-28T12:33:11.902Z,51.70
2017-01-28T12:34:12.303Z,51.70
2017-01-28T12:35:12.471Z,51.70
2017-01-28T12:36:14.296Z,51.70
2017-01-28T12:37:12.953Z,51.80
2017-01-28T12:38:13.297Z,51.80
2017-01-28T12:39:12.318Z,51.70
2017-01-28T12:40:13.051Z,51.70
2017-01-28T12:41:12.174Z,51.80
2017-01-28T12:42:10.060Z,is
2017-01-28T12:43:12.093Z,51.50
2017-01-28T12:44:12.166Z,51.30
2017-01-28T12:45:13.430Z,51.50
2017-01-28T12:46:12.151Z,49.80
2017-01-28T12:47:13.161Z,49.90
2017-01-28T12:48:12.292Z,51.00
2017-01-28T12:49:12.271Z,50.70
2017-01-28T12:50:12.423Z,51.20
2017-01-28T12:51:09.889Z,is
2017-01-28T12:52:11.506Z,50.00
2017-01-28T12:53:12.085Z,50.60
2017-01-28T12:54:10.878Z,is
2017-01-28T12:55:12.697Z,51.40
2017-01-28T12:56:11.837Z,51.30
2017-01-28T12:57:12.631Z,51.40
2017-01-28T12:58:12.284Z,51.50
2017-01-28T12:59:12.204Z,51.50
2017-01-28T13:00:13.582Z,51.40